Liberty City, Texas
Current Conditions -  °F | °C
As of 10:53 PM on Saturday 25 Oct 2014 (Local Time) from KGGG Reporting Station
Clear Clear  
Wind Chill: 67°   Ceiling: Unl
Heat Index: 67°   Visibility: 10mi
Dew Point: 63°   Wind: 7mph
Humidity: 87%   Direction: 190°S
Pressure: 30.07"   Gusts: NA
Location:  32.3769°N, 94.8692°W
Report Text: KGGG 260353Z AUTO 19006KT 10SM CLR 19/17 A3007 RMK AO2 SLP178 T01940172
Loading
Personal Weather Stations






























Interactive Weather Map
Tropical Storm Tracking
New forecast layout! Learn more

10-Day Weather Forecast

Advertisements
Track Severe Weather on mobile